Time;durP1;ratioP1;P1;durP2;ratioP2;P2;SDS_P1;SDS_P2;PMS_P1;PMS_P2;Temp;Humidity;BMP_temperature;BMP_pressure;BME280_temperature;BME280_humidity;BME280_pressure;Samples;Min_cycle;Max_cycle;Signal;HPM_P1;HPM_P2
2022/07/28 00:18:11;827735.00;2.76;1429.54;0.00;0.00;0.62;;;;;22.50;1.00;;;;;;2271236;56;3657;-88
2022/07/28 00:28:09;1187839.00;3.96;2068.25;0.00;0.00;0.62;;;;;22.90;1.00;;;;;;2315181;41;3634;-87
2022/07/28 00:33:05;850475.00;2.83;1469.30;0.00;0.00;0.62;;;;;23.30;1.00;;;;;;2264674;40;3360;-87
2022/07/28 00:38:12;1374323.00;4.58;2408.79;54862.00;0.18;95.59;;;;;23.00;1.00;;;;;;2262294;61;1409;-91
2022/07/28 00:43:08;1134939.00;3.78;1973.02;9654.00;0.03;17.35;;;;;22.40;1.00;;;;;;2263073;61;1339;-89
2022/07/28 00:45:35;669667.00;2.23;1154.68;0.00;0.00;0.62;;;;;22.40;1.00;;;;;;2261062;61;1416;-89
2022/07/28 00:50:39;1788936.00;5.96;3199.56;63021.00;0.21;109.70;;;;;22.70;1.00;;;;;;2257812;61;1455;-88
2022/07/28 00:53:07;774406.00;2.58;1336.52;100284.00;0.33;174.06;;;;;22.80;1.00;;;;;;2263706;40;3429;-87
2022/07/28 00:55:37;579001.00;1.93;997.98;43859.00;0.15;76.56;;;;;22.30;1.00;;;;;;2264077;61;1598;-87
2022/07/28 00:58:05;907184.00;3.02;1568.74;154984.00;0.52;268.40;;;;;21.90;1.00;;;;;;2264239;61;1723;-88
2022/07/28 01:00:32;1033669.00;3.45;1792.20;47028.00;0.16;82.05;;;;;21.70;1.00;;;;;;2294507;56;3779;-88
2022/07/28 01:05:37;1063876.00;3.55;1845.94;0.00;0.00;0.62;;;;;21.90;1.00;;;;;;2321212;41;3471;-89
2022/07/28 01:08:10;482191.00;1.61;831.17;74172.00;0.25;128.97;;;;;21.70;1.00;;;;;;2284727;56;3743;-86
2022/07/28 01:15:40;1857293.00;6.19;3335.30;57368.00;0.19;99.93;;;;;21.80;1.00;;;;;;2253745;61;1333;-90
2022/07/28 01:18:12;956884.00;3.19;1656.25;45596.00;0.15;79.57;;;;;21.70;1.00;;;;;;2252263;61;1433;-87
2022/07/28 01:23:28;1938634.00;6.46;3499.07;96553.00;0.32;167.62;;;;;21.40;1.00;;;;;;2257949;61;1417;-88
2022/07/28 01:26:19;595456.00;1.98;1026.37;75699.00;0.25;131.61;;;;;21.30;1.00;;;;;;2256144;61;1523;-88
2022/07/28 01:31:23;1240582.00;4.14;2163.77;75355.00;0.25;131.01;;;;;21.00;1.00;;;;;;2257855;61;1415;-88
2022/07/28 01:33:59;439013.00;1.46;756.89;69432.00;0.23;120.78;;;;;21.00;1.00;;;;;;2256128;61;1321;-87
2022/07/28 01:36:33;494124.00;1.65;851.71;64661.00;0.22;112.53;;;;;21.20;1.00;;;;;;2256201;61;1755;-90
2022/07/28 01:39:01;482653.00;1.61;831.96;74041.00;0.25;128.74;;;;;21.20;1.00;;;;;;2265252;40;3584;-88
2022/07/28 01:41:32;328332.00;1.09;566.62;71578.00;0.24;124.49;;;;;21.50;1.00;;;;;;2264479;61;1017;-90
2022/07/28 01:44:04;330849.00;1.10;570.95;72109.00;0.24;125.40;;;;;21.90;1.00;;;;;;2264355;61;1618;-88
2022/07/28 01:46:35;334809.00;1.12;577.75;63164.00;0.21;109.95;;;;;22.10;1.00;;;;;;2264386;61;1129;-87
2022/07/28 01:49:03;315174.00;1.05;544.00;66739.00;0.22;116.12;;;;;22.10;1.00;;;;;;2264336;61;1449;-86
2022/07/28 01:51:35;264870.00;0.88;457.52;63007.00;0.21;109.67;;;;;22.00;1.00;;;;;;2264362;61;1919;-88
2022/07/28 01:54:06;337443.00;1.12;582.28;70214.00;0.23;122.13;;;;;21.70;1.00;;;;;;2264282;61;1413;-88
2022/07/28 01:56:34;377524.00;1.26;651.17;73860.00;0.25;128.43;;;;;21.80;1.00;;;;;;2264352;61;1418;-87
2022/07/28 01:59:05;320401.00;1.07;552.99;69556.00;0.23;120.99;;;;;22.10;1.00;;;;;;2264410;61;1110;-88
2022/07/28 02:01:37;575502.00;1.92;991.94;109733.00;0.37;190.37;;;;;22.10;1.00;;;;;;2264265;61;1580;-86
2022/07/28 02:04:08;580791.00;1.94;1001.06;66937.00;0.22;116.47;;;;;22.20;1.00;;;;;;2264260;61;1579;-89
2022/07/28 02:06:36;655445.00;2.18;1130.06;73558.00;0.25;127.91;;;;;22.00;1.00;;;;;;2264269;61;1435;-87
2022/07/28 02:09:06;118909576.00;396.37;68107360.00;118590416.00;395.30;67559928.00;;;;;21.50;1.00;;;;;;2264355;61;1142;-87
2022/07/28 02:11:43;623202.00;2.08;1074.30;69543.00;0.23;120.97;;;;;21.70;1.00;;;;;;2264250;61;1989;-87
2022/07/28 02:14:13;518279.00;1.73;893.30;36690.00;0.12;64.16;;;;;21.70;1.00;;;;;;2264238;61;1676;-88
2022/07/28 02:16:45;414039.00;1.38;713.94;0.00;0.00;0.62;;;;;21.90;1.00;;;;;;2264263;61;1073;-87
2022/07/28 02:19:14;796015.00;2.65;1374.17;15949.00;0.05;28.25;;;;;22.00;1.00;;;;;;2264193;61;1623;-87
2022/07/28 02:21:46;323987.00;1.08;559.15;0.00;0.00;0.62;;;;;22.20;1.00;;;;;;2264188;61;1375;-88
2022/07/28 02:24:16;641199.00;2.14;1105.41;18975.00;0.06;33.50;;;;;22.20;1.00;;;;;;2264257;61;1471;-87
2022/07/28 02:26:49;559126.00;1.86;963.69;13958.00;0.05;24.81;;;;;22.20;1.00;;;;;;2264283;61;942;-87
2022/07/28 02:29:18;833513.00;2.78;1439.63;55169.00;0.18;96.12;;;;;22.20;1.00;;;;;;2264256;61;1015;-88
2022/07/28 02:31:52;942195.00;3.14;1630.35;93704.00;0.31;162.70;;;;;22.10;1.00;;;;;;2264282;61;1990;-88
2022/07/28 02:34:23;1080829.00;3.60;1876.17;150070.00;0.50;259.93;;;;;22.30;1.00;;;;;;2264103;61;1459;-88
2022/07/28 02:36:56;977500.00;3.26;1692.66;35690.00;0.12;62.43;;;;;22.30;1.00;;;;;;2264166;61;1572;-88
2022/07/28 02:39:26;775143.00;2.58;1337.81;30253.00;0.10;53.02;;;;;22.40;1.00;;;;;;2264219;61;985;-87
2022/07/28 02:42:01;376537.00;1.26;649.47;0.00;0.00;0.62;;;;;22.50;1.00;;;;;;2264198;61;1099;-88
2022/07/28 02:44:35;624039.00;2.08;1075.75;24286.00;0.08;42.69;;;;;22.50;1.00;;;;;;2264125;61;1561;-87
2022/07/28 02:47:09;728682.00;2.43;1257.01;27838.00;0.09;48.84;;;;;22.70;1.00;;;;;;2264235;61;1037;-87
2022/07/28 02:49:37;482326.00;1.61;831.40;8383.00;0.03;15.15;;;;;22.60;1.00;;;;;;2264146;61;1686;-87
2022/07/28 02:52:06;805439.00;2.68;1390.61;93612.00;0.31;162.54;;;;;22.80;1.00;;;;;;2264189;61;1910;-88
2022/07/28 02:54:36;804853.00;2.68;1389.59;54556.00;0.18;95.06;;;;;22.50;1.00;;;;;;2264132;61;1055;-88
2022/07/28 02:57:04;774793.00;2.58;1337.20;107170.00;0.36;185.95;;;;;22.20;1.00;;;;;;2263528;61;1431;-89
2022/07/28 02:59:32;656069.00;2.19;1131.14;44390.00;0.15;77.48;;;;;22.50;1.00;;;;;;2264257;61;1061;-88
2022/07/28 03:02:00;642091.00;2.14;1106.96;0.00;0.00;0.62;;;;;22.80;1.00;;;;;;2264084;61;1619;-89
2022/07/28 03:07:13;184718.00;0.62;319.61;15199.00;0.05;26.96;;;;;23.10;1.00;;;;;;2264175;61;665;-88
2022/07/28 03:09:41;538826.00;1.80;928.70;20093.00;0.07;35.43;;;;;23.30;1.00;;;;;;2264117;61;1014;-87
2022/07/28 03:12:09;455484.00;1.52;785.22;22551.00;0.08;39.69;;;;;23.40;1.00;;;;;;2264068;61;1999;-87
2022/07/28 03:14:37;560973.00;1.87;966.88;0.00;0.00;0.62;;;;;23.30;1.00;;;;;;2264149;61;1091;-88
2022/07/28 03:17:04;512607.00;1.71;883.53;28401.00;0.09;49.82;;;;;23.30;1.00;;;;;;2264111;61;1091;-88
2022/07/28 03:19:33;547466.00;1.82;943.59;0.00;0.00;0.62;;;;;23.10;1.00;;;;;;2264408;61;922;-88
2022/07/28 03:21:59;802636.00;2.68;1385.72;40749.00;0.14;71.18;;;;;23.00;1.00;;;;;;2264694;61;1482;-88
2022/07/28 03:24:30;726950.00;2.42;1254.01;76357.00;0.25;132.74;;;;;23.10;1.00;;;;;;2264699;61;1277;-87
2022/07/28 03:27:04;554660.00;1.85;955.99;33054.00;0.11;57.87;;;;;22.80;1.00;;;;;;2264746;61;1038;-87
2022/07/28 03:29:34;588561.00;1.96;1014.47;0.00;0.00;0.62;;;;;22.80;1.00;;;;;;2264634;61;1026;-87
2022/07/28 03:32:01;598514.00;2.00;1031.65;24443.00;0.08;42.96;;;;;22.90;1.00;;;;;;2264782;61;1916;-86
2022/07/28 03:34:29;681020.00;2.27;1174.34;43705.00;0.15;76.30;;;;;22.80;1.00;;;;;;2264576;61;1189;-87
2022/07/28 03:37:03;419196.00;1.40;722.81;53094.00;0.18;92.54;;;;;22.90;1.00;;;;;;2264686;61;942;-89
2022/07/28 03:39:35;667959.00;2.23;1151.72;28920.00;0.10;50.71;;;;;23.00;1.00;;;;;;2264599;61;1095;-88
2022/07/28 03:42:04;831281.00;2.77;1435.73;0.00;0.00;0.62;;;;;23.00;1.00;;;;;;2264665;61;2313;-87
2022/07/28 03:44:32;868184.00;2.89;1500.31;5409.00;0.02;9.99;;;;;23.20;1.00;;;;;;2264758;61;1377;-89
2022/07/28 03:46:59;709331.00;2.36;1223.42;25943.00;0.09;45.56;;;;;23.40;1.00;;;;;;2264737;61;1043;-88
2022/07/28 03:52:02;1310180.00;4.37;2290.75;79433.00;0.26;138.06;;;;;23.10;1.00;;;;;;2262507;61;1422;-86
2022/07/28 03:54:29;913063.00;3.04;1579.07;90582.00;0.30;157.31;;;;;23.20;1.00;;;;;;2260575;61;1588;-87
2022/07/28 03:56:56;832074.00;2.77;1437.12;90254.00;0.30;156.75;;;;;23.30;1.00;;;;;;2260671;61;1025;-88
2022/07/28 03:59:24;801542.00;2.67;1383.81;52100.00;0.17;90.82;;;;;23.30;1.00;;;;;;2260482;61;1447;-86
2022/07/28 04:01:54;826572.00;2.76;1427.51;28325.00;0.09;49.68;;;;;23.20;1.00;;;;;;2260585;61;1587;-88
2022/07/28 04:04:21;808320.00;2.69;1395.64;50558.00;0.17;88.15;;;;;23.20;1.00;;;;;;2260535;61;1613;-87
2022/07/28 04:06:49;841589.00;2.81;1453.75;78185.00;0.26;135.90;;;;;23.30;1.00;;;;;;2260627;61;1176;-88
2022/07/28 04:09:18;568099.00;1.89;979.17;0.00;0.00;0.62;;;;;23.30;1.00;;;;;;2260670;61;1018;-88
2022/07/28 04:11:46;824349.00;2.75;1423.62;44306.00;0.15;77.34;;;;;23.20;1.00;;;;;;2260599;61;1609;-87
2022/07/28 04:14:13;751934.00;2.51;1297.42;36928.00;0.12;64.57;;;;;23.20;1.00;;;;;;2260525;61;2181;-88
2022/07/28 04:16:42;919761.00;3.07;1590.85;88270.00;0.29;153.32;;;;;23.20;1.00;;;;;;2260610;61;1785;-88
2022/07/28 04:19:12;1107061.00;3.69;1923.06;219841.00;0.73;380.07;;;;;23.10;1.00;;;;;;2260582;61;1579;-89
2022/07/28 04:21:39;414571.00;1.38;714.86;0.00;0.00;0.62;;;;;22.80;1.00;;;;;;2260486;61;1575;-87
2022/07/28 04:24:08;620693.00;2.07;1069.96;36964.00;0.12;64.64;;;;;22.80;1.00;;;;;;2260560;61;1397;-89
2022/07/28 04:26:38;1067812.00;3.56;1852.96;49735.00;0.17;86.73;;;;;23.00;1.00;;;;;;2260412;61;1552;-88
2022/07/28 04:29:05;539905.00;1.80;930.56;41567.00;0.14;72.60;;;;;22.90;1.00;;;;;;2260595;61;1592;-87
2022/07/28 04:31:32;179338.00;0.60;310.35;0.00;0.00;0.62;;;;;22.90;1.00;;;;;;2260198;61;1603;-88
2022/07/28 04:34:05;755905.00;2.52;1304.33;32259.00;0.11;56.49;;;;;22.90;1.00;;;;;;2260425;61;2018;-86
2022/07/28 04:36:33;200834.00;0.67;347.36;0.00;0.00;0.62;;;;;23.00;1.00;;;;;;2260445;61;1606;-87
2022/07/28 04:39:00;107427.00;0.36;186.39;0.00;0.00;0.62;;;;;23.10;1.00;;;;;;2260515;61;1217;-87
2022/07/28 04:41:28;141040.00;0.47;244.36;0.00;0.00;0.62;;;;;23.10;1.00;;;;;;2260485;61;1119;-86
2022/07/28 04:44:01;224673.00;0.75;388.38;0.00;0.00;0.62;;;;;23.10;1.00;;;;;;2260497;61;1332;-87
2022/07/28 04:46:33;170453.00;0.57;295.05;0.00;0.00;0.62;;;;;23.20;1.00;;;;;;2260514;61;1031;-86
2022/07/28 04:49:00;97822.00;0.33;169.81;0.00;0.00;0.62;;;;;23.00;1.00;;;;;;2260484;61;1098;-87
2022/07/28 04:51:27;431485.00;1.44;743.94;99696.00;0.33;173.05;;;;;22.90;1.00;;;;;;2260364;61;1252;-86
2022/07/28 04:53:54;154330.00;0.51;267.27;0.00;0.00;0.62;;;;;22.90;1.00;;;;;;2260317;61;1916;-86
2022/07/28 05:06:22;900240.00;3.00;1556.54;0.00;0.00;0.62;;;;;23.90;1.00;;;;;;2267736;56;3666;-88
2022/07/28 05:11:17;1170094.00;3.90;2036.24;29675.00;0.10;52.02;;;;;23.90;1.00;;;;;;2268803;40;3529;-88
2022/07/28 05:13:45;78284.00;0.26;136.07;0.00;0.00;0.62;;;;;23.90;1.00;;;;;;2264345;61;1911;-85
2022/07/28 05:16:12;280942.00;0.94;485.16;0.00;0.00;0.62;;;;;24.00;1.00;;;;;;2264333;61;1540;-87
2022/07/28 05:18:39;218810.00;0.73;378.30;0.00;0.00;0.62;;;;;24.10;1.00;;;;;;2264340;61;1510;-86
2022/07/28 05:21:06;135083.00;0.45;234.09;0.00;0.00;0.62;;;;;24.20;1.00;;;;;;2264372;61;997;-87
2022/07/28 05:23:35;146685.00;0.49;254.09;30547.00;0.10;53.53;;;;;24.10;1.00;;;;;;2264239;61;1607;-86
2022/07/28 05:26:05;185848.00;0.62;321.56;0.00;0.00;0.62;;;;;24.00;1.00;;;;;;2264330;61;1018;-87
2022/07/28 05:28:33;108387.00;0.36;188.05;0.00;0.00;0.62;;;;;24.10;1.00;;;;;;2264325;61;1589;-87
2022/07/28 05:31:00;173527.00;0.58;300.34;0.00;0.00;0.62;;;;;24.50;1.00;;;;;;2264323;61;1705;-87
2022/07/28 05:33:27;256451.00;0.85;443.05;0.00;0.00;0.62;;;;;24.60;1.00;;;;;;2264202;61;2001;-89
2022/07/28 05:35:56;285895.00;0.95;493.67;14460.00;0.05;25.68;;;;;24.70;1.00;;;;;;2264282;61;1558;-88
2022/07/28 05:38:24;295019.00;0.98;509.36;74.00;0.00;0.75;;;;;24.40;1.00;;;;;;2264263;61;1545;-86
2022/07/28 05:40:53;193133.00;0.64;334.10;66106.00;0.22;115.03;;;;;24.10;1.00;;;;;;2264277;61;908;-87
2022/07/28 05:43:23;199949.00;0.67;345.84;0.00;0.00;0.62;;;;;23.90;1.00;;;;;;2264158;61;1418;-86
2022/07/28 05:45:50;385529.00;1.29;664.93;0.00;0.00;0.62;;;;;24.50;1.00;;;;;;2264328;61;1433;-86
2022/07/28 05:48:18;0.00;0.00;0.62;0.00;0.00;0.62;;;;;25.60;1.00;;;;;;2264312;61;1031;-89
2022/07/28 05:50:49;119416.00;0.40;207.08;0.00;0.00;0.62;;;;;27.20;1.00;;;;;;2264213;61;1043;-88
2022/07/28 05:53:16;195237.00;0.65;337.72;0.00;0.00;0.62;;;;;28.70;1.00;;;;;;2264241;61;1919;-89
2022/07/28 05:55:43;0.00;0.00;0.62;0.00;0.00;0.62;;;;;29.00;1.00;;;;;;2264403;61;998;-87
2022/07/28 05:58:13;190727.00;0.64;329.96;0.00;0.00;0.62;;;;;30.00;1.00;;;;;;2264400;61;1006;-88
2022/07/28 06:00:40;324623.00;1.08;560.24;0.00;0.00;0.62;;;;;31.40;1.00;;;;;;2264280;61;997;-89
2022/07/28 06:03:08;235058.00;0.78;406.25;0.00;0.00;0.62;;;;;31.60;1.00;;;;;;2264178;61;1367;-88
2022/07/28 06:05:36;218255.00;0.73;377.34;0.00;0.00;0.62;;;;;32.00;1.00;;;;;;2264239;61;1243;-86
2022/07/28 06:08:03;123390.00;0.41;213.93;0.00;0.00;0.62;;;;;31.80;1.00;;;;;;2264257;61;1487;-88
2022/07/28 06:10:57;33812.00;0.11;59.18;0.00;0.00;0.62;;;;;32.40;1.00;;;;;;2264265;61;1052;-88
2022/07/28 06:13:20;76312.00;0.25;132.67;0.00;0.00;0.62;;;;;33.50;1.00;;;;;;2264234;61;1999;-88
2022/07/28 06:15:47;212163.00;0.71;366.86;0.00;0.00;0.62;;;;;34.20;1.00;;;;;;2264273;61;1098;-86
2022/07/28 06:18:18;227456.00;0.76;393.17;0.00;0.00;0.62;;;;;33.60;1.00;;;;;;2264252;61;1529;-88
2022/07/28 06:20:47;223131.00;0.74;385.73;81917.00;0.27;142.35;;;;;33.70;1.00;;;;;;2264131;61;1448;-89
2022/07/28 06:23:19;252202.00;0.84;435.74;0.00;0.00;0.62;;;;;34.20;1.00;;;;;;2264133;61;1596;-87
2022/07/28 06:25:46;173531.00;0.58;300.35;0.00;0.00;0.62;;;;;34.30;1.00;;;;;;2264177;61;1129;-88
2022/07/28 06:28:13;235223.00;0.78;406.53;0.00;0.00;0.62;;;;;33.90;1.00;;;;;;2264244;61;1140;-87
2022/07/28 06:30:42;170561.00;0.57;295.23;0.00;0.00;0.62;;;;;34.40;1.00;;;;;;2264298;61;1065;-86
2022/07/28 06:33:09;0.00;0.00;0.62;0.00;0.00;0.62;;;;;34.80;1.00;;;;;;2264171;61;1992;-88
2022/07/28 06:35:36;82057.00;0.27;142.59;0.00;0.00;0.62;;;;;34.50;1.00;;;;;;2264318;61;990;-87
2022/07/28 06:38:03;79663.00;0.27;138.46;0.00;0.00;0.62;;;;;34.90;1.00;;;;;;2264258;61;1080;-87
2022/07/28 06:40:30;3262.00;0.01;6.27;0.00;0.00;0.62;;;;;34.70;1.00;;;;;;2264193;61;1118;-87
2022/07/28 06:42:57;255910.00;0.85;442.11;0.00;0.00;0.62;;;;;35.00;1.00;;;;;;2264178;61;1405;-86
2022/07/28 06:45:24;260613.00;0.87;450.20;0.00;0.00;0.62;;;;;34.70;1.00;;;;;;2264168;61;929;-85
2022/07/28 06:47:53;169868.00;0.57;294.04;0.00;0.00;0.62;;;;;34.60;1.00;;;;;;2264137;61;1609;-88
2022/07/28 06:50:21;269474.00;0.90;465.44;0.00;0.00;0.62;;;;;34.90;1.00;;;;;;2264213;61;1507;-87
2022/07/28 06:52:48;256595.00;0.86;443.29;24499.00;0.08;43.06;;;;;35.20;1.00;;;;;;2264083;61;1552;-86
2022/07/28 06:55:15;132620.00;0.44;229.85;0.00;0.00;0.62;;;;;35.60;1.00;;;;;;2264514;61;1930;-88
2022/07/28 06:57:43;164261.00;0.55;284.38;0.00;0.00;0.62;;;;;35.70;1.00;;;;;;2264843;61;1062;-86
2022/07/28 07:00:17;192419.00;0.64;332.87;23659.00;0.08;41.61;;;;;35.80;1.00;;;;;;2264842;61;1728;-89
2022/07/28 07:02:44;283696.00;0.95;489.89;0.00;0.00;0.62;;;;;35.60;1.00;;;;;;2264775;61;1418;-88
2022/07/28 07:05:13;318272.00;1.06;549.33;0.00;0.00;0.62;;;;;35.30;1.00;;;;;;2264918;61;1629;-86
2022/07/28 07:07:40;215358.00;0.72;372.36;77610.00;0.26;134.91;;;;;35.80;1.00;;;;;;2264778;61;1112;-86
2022/07/28 07:10:08;100202.00;0.33;173.92;0.00;0.00;0.62;;;;;35.20;1.00;;;;;;2264872;61;953;-88
2022/07/28 07:12:36;297057.00;0.99;512.86;0.00;0.00;0.62;;;;;35.50;1.00;;;;;;2264635;61;1597;-87
2022/07/28 07:15:07;301861.00;1.01;521.12;0.00;0.00;0.62;;;;;35.60;1.00;;;;;;2264755;61;1997;-87
2022/07/28 07:17:38;160897.00;0.54;278.58;0.00;0.00;0.62;;;;;35.30;1.00;;;;;;2264690;61;1072;-87
2022/07/28 07:20:09;227851.00;0.76;393.85;0.00;0.00;0.62;;;;;36.10;1.00;;;;;;2264838;61;1117;-87
2022/07/28 07:22:45;136947.00;0.46;237.31;0.00;0.00;0.62;;;;;36.00;1.00;;;;;;2264787;61;1388;-90
2022/07/28 07:25:17;253786.00;0.85;438.46;41446.00;0.14;72.39;;;;;36.10;1.00;;;;;;2264821;61;1304;-89
2022/07/28 07:27:44;70276.00;0.23;122.24;0.00;0.00;0.62;;;;;36.40;1.00;;;;;;2264788;61;1131;-89
2022/07/28 07:30:12;197793.00;0.66;342.12;0.00;0.00;0.62;;;;;36.30;1.00;;;;;;2264855;61;1047;-88
2022/07/28 07:32:39;265809.00;0.89;459.14;0.00;0.00;0.62;;;;;35.30;1.00;;;;;;2264636;61;1373;-86
2022/07/28 07:35:15;221310.00;0.74;382.60;58247.00;0.19;101.45;;;;;35.10;1.00;;;;;;2264769;61;1995;-86
2022/07/28 07:37:44;229014.00;0.76;395.85;0.00;0.00;0.62;;;;;34.80;1.00;;;;;;2264432;61;1288;-88
2022/07/28 07:40:11;218161.00;0.73;377.18;0.00;0.00;0.62;;;;;34.80;1.00;;;;;;2264581;61;1166;-87
2022/07/28 07:42:38;0.00;0.00;0.62;0.00;0.00;0.62;;;;;35.30;1.00;;;;;;2264609;61;1284;-86
2022/07/28 07:45:06;228786.00;0.76;395.46;0.00;0.00;0.62;;;;;35.80;1.00;;;;;;2264658;61;1452;-86
2022/07/28 07:47:33;158922.00;0.53;275.18;0.00;0.00;0.62;;;;;35.90;1.00;;;;;;2264636;61;1565;-86
2022/07/28 07:50:00;191230.00;0.64;330.83;42099.00;0.14;73.52;;;;;35.80;1.00;;;;;;2264659;61;1558;-87
2022/07/28 07:52:33;971271.00;3.24;1681.65;192320.00;0.64;332.70;;;;;35.50;1.00;;;;;;2264518;61;1625;-88
2022/07/28 07:55:03;0.00;0.00;0.62;0.00;0.00;0.62;;;;;35.70;1.00;;;;;;2264539;61;1985;-86
2022/07/28 07:57:33;348119.00;1.16;600.63;0.00;0.00;0.62;;;;;35.00;1.00;;;;;;2264605;61;1496;-86
2022/07/28 08:00:00;152139.00;0.51;263.49;0.00;0.00;0.62;;;;;34.80;1.00;;;;;;2264504;61;1613;-87
2022/07/28 08:02:31;257834.00;0.86;445.42;0.00;0.00;0.62;;;;;35.40;1.00;;;;;;2264670;61;1471;-86
2022/07/28 08:05:08;376944.00;1.26;650.17;0.00;0.00;0.62;;;;;35.50;1.00;;;;;;2264532;61;2144;-89
2022/07/28 08:07:38;306272.00;1.02;528.70;0.00;0.00;0.62;;;;;35.60;1.00;;;;;;2264603;61;1620;-87
2022/07/28 08:10:14;506828.00;1.69;873.58;77976.00;0.26;135.54;;;;;35.90;1.00;;;;;;2264516;61;1547;-89
2022/07/28 08:12:55;156913.00;0.52;271.72;0.00;0.00;0.62;;;;;36.30;1.00;;;;;;2264502;61;1337;-87
2022/07/28 08:15:25;267986.00;0.89;462.88;0.00;0.00;0.62;;;;;35.50;1.00;;;;;;2264585;61;1943;-88
2022/07/28 08:17:54;117533.00;0.39;203.83;0.00;0.00;0.62;;;;;35.20;1.00;;;;;;2264571;61;1046;-87
2022/07/28 08:20:33;483262.00;1.61;833.01;38329.00;0.13;67.00;;;;;36.00;1.00;;;;;;2264474;61;1172;-87
2022/07/28 08:23:03;498848.00;1.66;859.84;79957.00;0.27;138.96;;;;;35.40;1.00;;;;;;2264382;61;1502;-88
2022/07/28 08:25:38;508326.00;1.69;876.16;53645.00;0.18;93.49;;;;;35.10;1.00;;;;;;2264348;61;1460;-87
2022/07/28 08:28:09;431848.00;1.44;744.56;54894.00;0.18;95.65;;;;;34.80;1.00;;;;;;2264409;61;1570;-88
2022/07/28 08:35:47;1558319.00;5.19;2753.34;115389.00;0.38;200.13;;;;;33.50;1.00;;;;;;2258205;61;1904;-87
2022/07/28 08:40:48;1909357.00;6.36;3439.83;0.00;0.00;0.62;;;;;34.00;1.00;;;;;;2254345;61;1413;-88
2022/07/28 08:43:28;502181.00;1.67;865.58;1936.00;0.01;3.98;;;;;33.80;1.00;;;;;;2274180;56;3729;-89
2022/07/28 08:51:08;1403584.00;4.68;2462.97;11397.00;0.04;20.37;;;;;34.40;1.00;;;;;;2258321;61;1227;-88
2022/07/28 08:53:37;214713.00;0.72;371.25;0.00;0.00;0.62;;;;;34.70;1.00;;;;;;2256293;61;2007;-89
2022/07/28 08:58:39;725343.00;2.42;1251.21;0.00;0.00;0.62;;;;;33.60;1.00;;;;;;2270439;56;3648;-87
2022/07/28 09:01:16;806499.00;2.69;1392.46;0.00;0.00;0.62;;;;;32.30;1.00;;;;;;2342599;40;3584;-87
2022/07/28 09:03:55;640230.00;2.13;1103.74;159509.00;0.53;276.19;;;;;31.50;1.00;;;;;;2264006;61;1735;-88
2022/07/28 09:06:23;341312.00;1.14;588.93;36811.00;0.12;64.37;;;;;31.30;1.00;;;;;;2264327;61;1644;-89
2022/07/28 09:08:50;433890.00;1.45;748.08;0.00;0.00;0.62;;;;;31.40;1.00;;;;;;2264280;61;1648;-87
2022/07/28 09:11:21;270293.00;0.90;466.85;0.00;0.00;0.62;;;;;31.50;1.00;;;;;;2284918;40;3799;-88
2022/07/28 09:16:30;548597.00;1.83;945.54;0.00;0.00;0.62;;;;;30.80;1.00;;;;;;2253687;61;1413;-87
2022/07/28 09:19:00;393616.00;1.31;678.83;0.00;0.00;0.62;;;;;31.00;1.00;;;;;;2252347;61;1608;-87
2022/07/28 09:21:31;297199.00;0.99;513.11;50292.00;0.17;87.69;;;;;30.50;1.00;;;;;;2252301;61;1692;-86
2022/07/28 09:24:02;617946.00;2.06;1065.22;78346.00;0.26;136.18;;;;;30.20;1.00;;;;;;2252330;61;1298;-88
2022/07/28 09:26:35;278553.00;0.93;481.05;0.00;0.00;0.62;;;;;30.60;1.00;;;;;;2252334;61;1040;-87
2022/07/28 09:29:06;290609.00;0.97;501.78;25438.00;0.08;44.69;;;;;30.90;1.00;;;;;;2252485;61;1215;-87
2022/07/28 09:31:35;178965.00;0.60;309.71;0.00;0.00;0.62;;;;;30.50;1.00;;;;;;2252329;61;1050;-88
2022/07/28 09:36:46;1184957.00;3.95;2063.05;0.00;0.00;0.62;;;;;30.20;1.00;;;;;;2262130;61;1417;-87
2022/07/28 09:39:31;316607.00;1.06;546.47;27322.00;0.09;47.95;;;;;29.90;1.00;;;;;;2260266;61;1557;-87
2022/07/28 09:41:59;190970.00;0.64;330.38;0.00;0.00;0.62;;;;;29.50;1.00;;;;;;2260069;61;1700;-87
2022/07/28 09:44:30;429175.00;1.43;739.97;31949.00;0.11;55.96;;;;;28.80;1.00;;;;;;2263313;61;1223;-88
2022/07/28 09:47:02;333556.00;1.11;575.60;0.00;0.00;0.62;;;;;28.80;1.00;;;;;;2265800;56;3766;-88
2022/07/28 09:49:44;688230.00;2.29;1186.83;60153.00;0.20;104.74;;;;;28.90;1.00;;;;;;2272038;41;3651;-88
2022/07/28 09:55:00;627410.00;2.09;1081.57;0.00;0.00;0.62;;;;;29.00;1.00;;;;;;2253671;61;1892;-87
2022/07/28 09:57:28;881563.00;2.94;1523.76;86469.00;0.29;150.21;;;;;29.10;1.00;;;;;;2355201;56;3794;-87
2022/07/28 09:59:58;117748752.00;392.50;66130376.00;0.00;0.00;0.62;;;;;29.90;1.00;;;;;;2322790;40;3791;-87
2022/07/28 10:02:30;155374.00;0.52;269.07;0.00;0.00;0.62;;;;;30.00;1.00;;;;;;2264134;61;1404;-87
2022/07/28 10:04:59;94904.00;0.32;164.77;0.00;0.00;0.62;;;;;30.40;1.00;;;;;;2264375;61;1003;-88
2022/07/28 10:07:29;154168.00;0.51;266.99;0.00;0.00;0.62;;;;;30.40;1.00;;;;;;2264266;61;1755;-88
2022/07/28 10:09:58;261343.00;0.87;451.46;0.00;0.00;0.62;;;;;30.30;1.00;;;;;;2264286;61;1679;-87
2022/07/28 10:12:28;270568.00;0.90;467.32;0.00;0.00;0.62;;;;;30.00;1.00;;;;;;2264034;61;1265;-88
2022/07/28 10:16:09;131839.00;0.44;228.50;0.00;0.00;0.62;;;;;30.20;1.00;;;;;;2273675;55;3761;-86
2022/07/28 10:18:00;86900.00;0.29;150.95;0.00;0.00;0.62;;;;;30.30;1.00;;;;;;2264166;61;1387;-88
2022/07/28 10:20:28;496507.00;1.66;855.81;105359.00;0.35;182.82;;;;;30.10;1.00;;;;;;2264226;61;1497;-87
2022/07/28 10:23:11;369229.00;1.23;636.91;61960.00;0.21;107.86;;;;;30.40;1.00;;;;;;2264221;61;1615;-87
2022/07/28 10:25:40;792794.00;2.64;1368.56;123859.00;0.41;214.74;;;;;30.20;1.00;;;;;;2264061;61;1567;-87
2022/07/28 10:28:14;676092.00;2.25;1165.80;67298.00;0.22;117.09;;;;;29.80;1.00;;;;;;2264295;61;1644;-87
2022/07/28 10:30:47;659297.00;2.20;1136.72;100784.00;0.34;174.93;;;;;29.60;1.00;;;;;;2285160;40;3675;-86
2022/07/28 10:33:18;123358056.00;411.19;76048424.00;54993.00;0.18;95.82;;;;;30.30;1.00;;;;;;2264848;61;1552;-88
2022/07/28 10:35:51;404392.00;1.35;697.36;121820.00;0.41;211.22;;;;;30.40;1.00;;;;;;2264885;61;1931;-85
2022/07/28 10:38:23;534186.00;1.78;920.70;58129.00;0.19;101.24;;;;;30.50;1.00;;;;;;2264800;61;1550;-86
2022/07/28 10:43:20;1939771.00;6.47;3501.38;77826.00;0.26;135.28;;;;;29.90;1.00;;;;;;2262456;61;1430;-87
2022/07/28 10:45:48;786268.00;2.62;1357.19;53809.00;0.18;93.77;;;;;30.00;1.00;;;;;;2385308;41;3575;-88
2022/07/28 10:48:27;996233.00;3.32;1725.80;125472.00;0.42;217.52;;;;;29.90;1.00;;;;;;2264689;61;1003;-88
2022/07/28 10:50:59;476014.00;1.59;820.54;59002.00;0.20;102.75;;;;;30.00;1.00;;;;;;2264883;61;1032;-87
2022/07/28 10:53:40;847609.00;2.83;1464.28;114587.00;0.38;198.74;;;;;30.20;1.00;;;;;;2264855;61;1596;-88
2022/07/28 10:56:24;1033265.00;3.44;1791.48;76593.00;0.26;133.15;;;;;29.80;1.00;;;;;;2264872;61;1940;-87
2022/07/28 10:59:06;669787.00;2.23;1154.88;5039.00;0.02;9.35;;;;;29.60;1.00;;;;;;2264798;61;1601;-88
2022/07/28 11:01:37;786007.00;2.62;1356.73;48416.00;0.16;84.45;;;;;29.70;1.00;;;;;;2264777;61;1400;-87
2022/07/28 11:04:12;771568.00;2.57;1331.58;55906.00;0.19;97.40;;;;;29.90;1.00;;;;;;2264702;61;1562;-86
2022/07/28 11:06:54;407820.00;1.36;703.25;0.00;0.00;0.62;;;;;30.20;1.00;;;;;;2264693;61;961;-87
2022/07/28 11:12:14;648490.00;2.16;1118.02;68166.00;0.23;118.59;;;;;30.50;1.00;;;;;;2306344;40;3775;-88
2022/07/28 11:17:34;1383409.00;4.61;2425.59;0.00;0.00;0.62;;;;;30.10;1.00;;;;;;2278372;41;3558;-88
2022/07/28 11:20:10;1026660.00;3.42;1779.75;120361.00;0.40;208.71;;;;;30.00;1.00;;;;;;2260775;61;1070;-89
2022/07/28 11:22:40;393149.00;1.31;678.03;0.00;0.00;0.62;;;;;30.20;1.00;;;;;;2260633;61;1377;-87
2022/07/28 11:25:12;542652.00;1.81;935.29;18403.00;0.06;32.50;;;;;30.40;1.00;;;;;;2260561;61;1578;-88
2022/07/28 11:28:03;464783.00;1.55;801.21;91700.00;0.31;159.24;;;;;30.30;1.00;;;;;;2260517;61;1678;-89
2022/07/28 11:33:15;2253688.00;7.51;4158.91;54998.00;0.18;95.83;;;;;29.90;1.00;;;;;;2328831;41;3483;-86